KMXF/MXF METAR and TAF weather

Enter ICAO airport designator
Station Type Date Time Source
KMXF METAR 2020/08/10 17:56 UTC NOAA

KMXF 101756Z AUTO 19003KT 10SM SCT055 35/21 A3006 RMK AO2 SLP180 T03480211 10355 20246 58013 $


Station Type Date Time Source
KMXF Decoded METAR 2020/08/10 17:56 UTC NOAA

Maxwell Air Force Base / Montgomery, AL, United States (KMXF) 32-23N 086-22W
Aug 10, 2020 - 01:56 PM EDT / 2020.08.10 1756 UTC
Wind: from the S (190 degrees) at 3 MPH (3 KT):0
Visibility: 10 mile(s):0
Sky conditions: partly cloudy
Temperature: 94.6 F (34.8 C)
Heat index: 100.4 F (38.0 C):1
Dew Point: 70.0 F (21.1 C)
Relative Humidity: 44%
Pressure (altimeter): 30.06 in. Hg (1017 hPa)
Pressure tendency: 0.04 inches (1.3 hPa) lower than three hours ago
ob: KMXF 101756Z AUTO 19003KT 10SM SCT055 35/21 A3006 RMK AO2 SLP180 T03480211 10355 20246 58013
cycle: 18

Station Type Date Time Source
KMXF TAF 2020/08/10 11:09 UTC NOAA

TAF KMXF 101100Z 1011/1117 26008KT 9999 FEW030 QNH3004INS
BECMG 1017/1018 24010KT 9000 -SHRA BKN030 QNH3000INS
TEMPO 1019/1023 VRB15G25KT 6000 -TSRA BKN030CB
BECMG 1023/1024 19008KT 9999 VCTS SCT030CB BKN100 BKN250 QNH2996INS
TEMPO 1100/1103 VRB15G30KT 1600 TSRA BKN025CB
BECMG 1102/1103 18006KT 9999 NSW SCT040 QNH3000INS
BECMG 1109/1110 VRB06KT 4800 BR BKN005 QNH3000INS
BECMG 1113/1114 VRB06KT 9999 NSW SCT020 QNH2998INS TX35/1021Z TN23/1011Z

Example: see airport list